sensor_id;sensor_type;location;lat;lon;timestamp;temperature;humidity
9768;DHT22;4923;52.520;13.494;2022-07-26T00:00:22;19.30;1.00
9768;DHT22;4923;52.520;13.494;2022-07-26T00:03:09;19.30;1.00
9768;DHT22;4923;52.520;13.494;2022-07-26T00:05:56;19.30;1.00
9768;DHT22;4923;52.520;13.494;2022-07-26T00:08:43;19.30;1.00
9768;DHT22;4923;52.520;13.494;2022-07-26T00:11:30;19.20;1.00
9768;DHT22;4923;52.520;13.494;2022-07-26T00:14:18;19.10;1.00
9768;DHT22;4923;52.520;13.494;2022-07-26T00:17:07;19.10;1.00
9768;DHT22;4923;52.520;13.494;2022-07-26T00:19:53;19.00;1.00
9768;DHT22;4923;52.520;13.494;2022-07-26T00:22:40;18.90;1.00
9768;DHT22;4923;52.520;13.494;2022-07-26T00:25:28;18.90;1.00
9768;DHT22;4923;52.520;13.494;2022-07-26T00:28:15;18.90;1.00
9768;DHT22;4923;52.520;13.494;2022-07-26T00:31:02;18.80;1.00
9768;DHT22;4923;52.520;13.494;2022-07-26T00:33:50;18.80;1.00
9768;DHT22;4923;52.520;13.494;2022-07-26T00:36:37;18.80;1.00
9768;DHT22;4923;52.520;13.494;2022-07-26T00:39:24;18.80;1.00
9768;DHT22;4923;52.520;13.494;2022-07-26T00:42:11;18.80;1.00
9768;DHT22;4923;52.520;13.494;2022-07-26T00:44:59;18.80;1.00
9768;DHT22;4923;52.520;13.494;2022-07-26T00:47:46;18.80;1.00
9768;DHT22;4923;52.520;13.494;2022-07-26T00:50:36;18.80;1.00
9768;DHT22;4923;52.520;13.494;2022-07-26T00:53:23;18.70;1.00
9768;DHT22;4923;52.520;13.494;2022-07-26T00:56:10;18.70;1.00
9768;DHT22;4923;52.520;13.494;2022-07-26T00:58:57;18.70;1.00
9768;DHT22;4923;52.520;13.494;2022-07-26T01:01:44;18.70;1.00
9768;DHT22;4923;52.520;13.494;2022-07-26T01:04:31;18.70;1.00
9768;DHT22;4923;52.520;13.494;2022-07-26T01:07:19;18.70;1.00
9768;DHT22;4923;52.520;13.494;2022-07-26T01:10:10;18.70;1.00
9768;DHT22;4923;52.520;13.494;2022-07-26T01:12:58;18.70;1.00
9768;DHT22;4923;52.520;13.494;2022-07-26T01:15:45;18.70;1.00
9768;DHT22;4923;52.520;13.494;2022-07-26T01:18:32;18.70;1.00
9768;DHT22;4923;52.520;13.494;2022-07-26T01:21:18;18.70;1.00
9768;DHT22;4923;52.520;13.494;2022-07-26T01:24:08;18.80;1.00
9768;DHT22;4923;52.520;13.494;2022-07-26T01:26:55;18.80;1.00
9768;DHT22;4923;52.520;13.494;2022-07-26T01:29:42;18.80;1.00
9768;DHT22;4923;52.520;13.494;2022-07-26T01:32:29;18.80;1.00
9768;DHT22;4923;52.520;13.494;2022-07-26T01:35:16;18.90;1.00
9768;DHT22;4923;52.520;13.494;2022-07-26T01:38:03;18.80;1.00
9768;DHT22;4923;52.520;13.494;2022-07-26T01:40:52;18.90;1.00
9768;DHT22;4923;52.520;13.494;2022-07-26T01:43:39;18.90;1.00
9768;DHT22;4923;52.520;13.494;2022-07-26T01:46:26;18.90;1.00
9768;DHT22;4923;52.520;13.494;2022-07-26T01:49:13;18.90;1.00
9768;DHT22;4923;52.520;13.494;2022-07-26T01:52:00;18.90;1.00
9768;DHT22;4923;52.520;13.494;2022-07-26T01:54:46;18.90;1.00
9768;DHT22;4923;52.520;13.494;2022-07-26T01:57:35;18.90;1.00
9768;DHT22;4923;52.520;13.494;2022-07-26T02:00:21;18.90;1.00
9768;DHT22;4923;52.520;13.494;2022-07-26T02:03:09;18.90;1.00
9768;DHT22;4923;52.520;13.494;2022-07-26T02:05:56;18.90;1.00
9768;DHT22;4923;52.520;13.494;2022-07-26T02:08:43;18.80;1.00
9768;DHT22;4923;52.520;13.494;2022-07-26T02:11:30;18.80;1.00
9768;DHT22;4923;52.520;13.494;2022-07-26T02:14:18;18.80;1.00
9768;DHT22;4923;52.520;13.494;2022-07-26T02:17:05;18.80;1.00
9768;DHT22;4923;52.520;13.494;2022-07-26T02:19:52;18.70;1.00
9768;DHT22;4923;52.520;13.494;2022-07-26T02:22:38;18.70;1.00
9768;DHT22;4923;52.520;13.494;2022-07-26T02:25:26;18.70;1.00
9768;DHT22;4923;52.520;13.494;2022-07-26T02:28:13;18.70;1.00
9768;DHT22;4923;52.520;13.494;2022-07-26T02:31:01;18.70;1.00
9768;DHT22;4923;52.520;13.494;2022-07-26T02:33:48;18.70;1.00
9768;DHT22;4923;52.520;13.494;2022-07-26T02:36:35;18.70;1.00
9768;DHT22;4923;52.520;13.494;2022-07-26T02:39:22;18.70;1.00
9768;DHT22;4923;52.520;13.494;2022-07-26T02:42:12;18.80;1.00
9768;DHT22;4923;52.520;13.494;2022-07-26T02:44:59;18.80;1.00
9768;DHT22;4923;52.520;13.494;2022-07-26T02:47:48;18.80;1.00
9768;DHT22;4923;52.520;13.494;2022-07-26T02:50:35;18.70;1.00
9768;DHT22;4923;52.520;13.494;2022-07-26T02:53:22;18.70;1.00
9768;DHT22;4923;52.520;13.494;2022-07-26T02:56:09;18.60;1.00
9768;DHT22;4923;52.520;13.494;2022-07-26T02:58:56;18.50;1.00
9768;DHT22;4923;52.520;13.494;2022-07-26T03:01:43;18.50;1.00
9768;DHT22;4923;52.520;13.494;2022-07-26T03:04:31;18.40;1.00
9768;DHT22;4923;52.520;13.494;2022-07-26T03:07:18;18.40;1.00
9768;DHT22;4923;52.520;13.494;2022-07-26T03:10:06;18.30;1.00
9768;DHT22;4923;52.520;13.494;2022-07-26T03:12:53;18.30;1.00
9768;DHT22;4923;52.520;13.494;2022-07-26T03:15:40;18.20;1.00
9768;DHT22;4923;52.520;13.494;2022-07-26T03:18:27;18.20;1.00
9768;DHT22;4923;52.520;13.494;2022-07-26T03:21:15;18.10;1.00
9768;DHT22;4923;52.520;13.494;2022-07-26T03:24:03;18.20;1.00
9768;DHT22;4923;52.520;13.494;2022-07-26T03:26:50;18.20;1.00
9768;DHT22;4923;52.520;13.494;2022-07-26T03:29:37;18.20;1.00
9768;DHT22;4923;52.520;13.494;2022-07-26T03:32:24;18.20;1.00
9768;DHT22;4923;52.520;13.494;2022-07-26T03:35:11;18.20;1.00
9768;DHT22;4923;52.520;13.494;2022-07-26T03:37:59;18.30;1.00
9768;DHT22;4923;52.520;13.494;2022-07-26T03:40:46;18.30;1.00
9768;DHT22;4923;52.520;13.494;2022-07-26T03:43:33;18.30;1.00
9768;DHT22;4923;52.520;13.494;2022-07-26T03:46:20;18.30;1.00
9768;DHT22;4923;52.520;13.494;2022-07-26T03:49:07;18.30;1.00
9768;DHT22;4923;52.520;13.494;2022-07-26T03:51:54;18.30;1.00
9768;DHT22;4923;52.520;13.494;2022-07-26T03:54:42;18.30;1.00
9768;DHT22;4923;52.520;13.494;2022-07-26T03:57:29;18.40;1.00
9768;DHT22;4923;52.520;13.494;2022-07-26T04:00:15;18.40;1.00
9768;DHT22;4923;52.520;13.494;2022-07-26T04:03:02;18.50;1.00
9768;DHT22;4923;52.520;13.494;2022-07-26T04:05:49;18.50;1.00
9768;DHT22;4923;52.520;13.494;2022-07-26T04:08:36;18.50;1.00
9768;DHT22;4923;52.520;13.494;2022-07-26T04:11:24;18.60;1.00
9768;DHT22;4923;52.520;13.494;2022-07-26T04:14:11;18.50;1.00
9768;DHT22;4923;52.520;13.494;2022-07-26T04:16:58;18.60;1.00
9768;DHT22;4923;52.520;13.494;2022-07-26T04:19:45;18.60;1.00
9768;DHT22;4923;52.520;13.494;2022-07-26T04:22:32;18.60;1.00
9768;DHT22;4923;52.520;13.494;2022-07-26T04:25:19;18.70;1.00
9768;DHT22;4923;52.520;13.494;2022-07-26T04:28:07;18.70;1.00
9768;DHT22;4923;52.520;13.494;2022-07-26T04:30:54;18.70;1.00
9768;DHT22;4923;52.520;13.494;2022-07-26T04:33:41;18.70;1.00
9768;DHT22;4923;52.520;13.494;2022-07-26T04:36:28;18.80;1.00
9768;DHT22;4923;52.520;13.494;2022-07-26T04:39:15;18.80;1.00
9768;DHT22;4923;52.520;13.494;2022-07-26T04:42:09;18.90;1.00
9768;DHT22;4923;52.520;13.494;2022-07-26T04:44:57;18.90;1.00
9768;DHT22;4923;52.520;13.494;2022-07-26T04:47:47;18.90;1.00
9768;DHT22;4923;52.520;13.494;2022-07-26T04:50:35;19.00;1.00
9768;DHT22;4923;52.520;13.494;2022-07-26T04:53:22;19.10;1.00
9768;DHT22;4923;52.520;13.494;2022-07-26T04:56:09;19.30;1.00
9768;DHT22;4923;52.520;13.494;2022-07-26T04:58:55;19.40;1.00
9768;DHT22;4923;52.520;13.494;2022-07-26T05:01:44;19.60;1.00
9768;DHT22;4923;52.520;13.494;2022-07-26T05:04:30;19.70;1.00
9768;DHT22;4923;52.520;13.494;2022-07-26T05:07:17;19.80;1.00
9768;DHT22;4923;52.520;13.494;2022-07-26T05:10:05;20.00;1.00
9768;DHT22;4923;52.520;13.494;2022-07-26T05:12:52;20.00;1.00
9768;DHT22;4923;52.520;13.494;2022-07-26T05:15:39;20.10;1.00
9768;DHT22;4923;52.520;13.494;2022-07-26T05:18:27;20.00;1.00
9768;DHT22;4923;52.520;13.494;2022-07-26T05:21:16;20.00;1.00
9768;DHT22;4923;52.520;13.494;2022-07-26T05:24:03;20.00;1.00
9768;DHT22;4923;52.520;13.494;2022-07-26T05:26:50;19.90;1.00
9768;DHT22;4923;52.520;13.494;2022-07-26T05:29:37;19.90;1.00
9768;DHT22;4923;52.520;13.494;2022-07-26T05:32:24;20.00;1.00
9768;DHT22;4923;52.520;13.494;2022-07-26T05:35:14;20.10;1.00
9768;DHT22;4923;52.520;13.494;2022-07-26T05:38:00;20.20;1.00
9768;DHT22;4923;52.520;13.494;2022-07-26T05:40:47;20.00;1.00
9768;DHT22;4923;52.520;13.494;2022-07-26T05:43:34;20.20;1.00
9768;DHT22;4923;52.520;13.494;2022-07-26T05:46:21;20.20;1.00
9768;DHT22;4923;52.520;13.494;2022-07-26T05:49:08;20.20;1.00
9768;DHT22;4923;52.520;13.494;2022-07-26T05:51:56;20.30;1.00
9768;DHT22;4923;52.520;13.494;2022-07-26T05:54:43;20.50;1.00
9768;DHT22;4923;52.520;13.494;2022-07-26T05:57:30;20.60;1.00
9768;DHT22;4923;52.520;13.494;2022-07-26T06:00:17;20.80;1.00
9768;DHT22;4923;52.520;13.494;2022-07-26T06:03:05;20.90;1.00
9768;DHT22;4923;52.520;13.494;2022-07-26T06:06:06;20.90;1.00
9768;DHT22;4923;52.520;13.494;2022-07-26T06:08:54;20.70;1.00
9768;DHT22;4923;52.520;13.494;2022-07-26T06:11:41;20.90;1.00
9768;DHT22;4923;52.520;13.494;2022-07-26T06:14:28;21.00;1.00
9768;DHT22;4923;52.520;13.494;2022-07-26T06:17:15;20.90;1.00
9768;DHT22;4923;52.520;13.494;2022-07-26T06:20:03;21.00;1.00
9768;DHT22;4923;52.520;13.494;2022-07-26T06:22:50;21.20;1.00
9768;DHT22;4923;52.520;13.494;2022-07-26T06:25:39;21.20;1.00
9768;DHT22;4923;52.520;13.494;2022-07-26T06:28:25;21.00;1.00
9768;DHT22;4923;52.520;13.494;2022-07-26T06:31:12;21.10;1.00
9768;DHT22;4923;52.520;13.494;2022-07-26T06:33:59;21.00;1.00
9768;DHT22;4923;52.520;13.494;2022-07-26T06:36:46;21.10;1.00
9768;DHT22;4923;52.520;13.494;2022-07-26T06:39:33;21.00;1.00
9768;DHT22;4923;52.520;13.494;2022-07-26T06:42:21;21.30;1.00
9768;DHT22;4923;52.520;13.494;2022-07-26T06:45:09;21.40;1.00
9768;DHT22;4923;52.520;13.494;2022-07-26T06:47:56;21.60;1.00
9768;DHT22;4923;52.520;13.494;2022-07-26T06:50:43;21.50;1.00
9768;DHT22;4923;52.520;13.494;2022-07-26T06:53:30;21.40;1.00
9768;DHT22;4923;52.520;13.494;2022-07-26T06:56:17;21.50;1.00
9768;DHT22;4923;52.520;13.494;2022-07-26T06:59:05;21.50;1.00
9768;DHT22;4923;52.520;13.494;2022-07-26T07:01:53;21.80;1.00
9768;DHT22;4923;52.520;13.494;2022-07-26T07:04:39;22.10;1.00
9768;DHT22;4923;52.520;13.494;2022-07-26T07:07:26;22.10;1.00
9768;DHT22;4923;52.520;13.494;2022-07-26T07:10:13;22.20;1.00
9768;DHT22;4923;52.520;13.494;2022-07-26T07:13:00;22.40;1.00
9768;DHT22;4923;52.520;13.494;2022-07-26T07:15:49;22.50;1.00
9768;DHT22;4923;52.520;13.494;2022-07-26T07:18:36;22.40;1.00
9768;DHT22;4923;52.520;13.494;2022-07-26T07:21:22;21.90;1.00
9768;DHT22;4923;52.520;13.494;2022-07-26T07:24:09;22.10;1.00
9768;DHT22;4923;52.520;13.494;2022-07-26T07:26:56;22.40;1.00
9768;DHT22;4923;52.520;13.494;2022-07-26T07:29:45;21.90;1.00
9768;DHT22;4923;52.520;13.494;2022-07-26T07:32:33;21.80;1.00
9768;DHT22;4923;52.520;13.494;2022-07-26T07:35:20;21.50;1.00
9768;DHT22;4923;52.520;13.494;2022-07-26T07:38:07;21.50;1.00
9768;DHT22;4923;52.520;13.494;2022-07-26T07:40:54;21.60;1.00
9768;DHT22;4923;52.520;13.494;2022-07-26T07:43:40;21.60;1.00
9768;DHT22;4923;52.520;13.494;2022-07-26T07:46:29;21.80;1.00
9768;DHT22;4923;52.520;13.494;2022-07-26T07:49:17;21.90;1.00
9768;DHT22;4923;52.520;13.494;2022-07-26T07:52:05;22.30;1.00
9768;DHT22;4923;52.520;13.494;2022-07-26T07:54:52;22.50;1.00
9768;DHT22;4923;52.520;13.494;2022-07-26T07:57:39;22.60;1.00
9768;DHT22;4923;52.520;13.494;2022-07-26T08:00:26;22.70;1.00
9768;DHT22;4923;52.520;13.494;2022-07-26T08:03:12;22.80;1.00
9768;DHT22;4923;52.520;13.494;2022-07-26T08:06:01;23.30;1.00
9768;DHT22;4923;52.520;13.494;2022-07-26T08:08:48;23.50;1.00
9768;DHT22;4923;52.520;13.494;2022-07-26T08:11:35;23.90;1.00
9768;DHT22;4923;52.520;13.494;2022-07-26T08:14:22;24.40;1.00
9768;DHT22;4923;52.520;13.494;2022-07-26T08:17:09;24.90;1.00
9768;DHT22;4923;52.520;13.494;2022-07-26T08:19:56;25.00;1.00
9768;DHT22;4923;52.520;13.494;2022-07-26T08:22:44;24.70;1.00
9768;DHT22;4923;52.520;13.494;2022-07-26T08:25:31;24.00;1.00
9768;DHT22;4923;52.520;13.494;2022-07-26T08:28:18;23.70;1.00
9768;DHT22;4923;52.520;13.494;2022-07-26T08:31:05;23.20;1.00
9768;DHT22;4923;52.520;13.494;2022-07-26T08:33:52;22.90;1.00
9768;DHT22;4923;52.520;13.494;2022-07-26T08:36:39;23.00;1.00
9768;DHT22;4923;52.520;13.494;2022-07-26T08:39:27;23.10;1.00
9768;DHT22;4923;52.520;13.494;2022-07-26T08:42:15;23.20;1.00
9768;DHT22;4923;52.520;13.494;2022-07-26T08:45:03;22.70;1.00
9768;DHT22;4923;52.520;13.494;2022-07-26T08:47:50;22.60;1.00
9768;DHT22;4923;52.520;13.494;2022-07-26T08:50:38;22.50;1.00
9768;DHT22;4923;52.520;13.494;2022-07-26T08:53:28;22.40;1.00
9768;DHT22;4923;52.520;13.494;2022-07-26T08:56:16;22.40;1.00
9768;DHT22;4923;52.520;13.494;2022-07-26T08:59:04;22.30;1.00
9768;DHT22;4923;52.520;13.494;2022-07-26T09:01:53;22.30;1.00
9768;DHT22;4923;52.520;13.494;2022-07-26T09:04:42;22.50;1.00
9768;DHT22;4923;52.520;13.494;2022-07-26T09:07:32;22.50;1.00
9768;DHT22;4923;52.520;13.494;2022-07-26T09:10:19;22.50;1.00
9768;DHT22;4923;52.520;13.494;2022-07-26T09:13:07;22.30;1.00
9768;DHT22;4923;52.520;13.494;2022-07-26T09:16:10;22.40;1.00
9768;DHT22;4923;52.520;13.494;2022-07-26T09:19:14;22.60;1.00
9768;DHT22;4923;52.520;13.494;2022-07-26T09:22:07;23.00;1.00
9768;DHT22;4923;52.520;13.494;2022-07-26T09:24:54;23.40;1.00
9768;DHT22;4923;52.520;13.494;2022-07-26T09:27:41;23.60;1.00
9768;DHT22;4923;52.520;13.494;2022-07-26T09:30:30;23.50;1.00
9768;DHT22;4923;52.520;13.494;2022-07-26T09:33:18;23.90;1.00
9768;DHT22;4923;52.520;13.494;2022-07-26T09:36:06;24.20;1.00
9768;DHT22;4923;52.520;13.494;2022-07-26T09:38:54;24.20;1.00
9768;DHT22;4923;52.520;13.494;2022-07-26T09:41:43;24.60;1.00
9768;DHT22;4923;52.520;13.494;2022-07-26T09:44:30;24.50;1.00
9768;DHT22;4923;52.520;13.494;2022-07-26T09:47:18;24.30;1.00
9768;DHT22;4923;52.520;13.494;2022-07-26T09:50:13;24.20;1.00
9768;DHT22;4923;52.520;13.494;2022-07-26T09:53:03;24.20;1.00
9768;DHT22;4923;52.520;13.494;2022-07-26T09:55:55;24.30;1.00
9768;DHT22;4923;52.520;13.494;2022-07-26T09:58:43;24.50;1.00
9768;DHT22;4923;52.520;13.494;2022-07-26T10:01:30;24.70;1.00
9768;DHT22;4923;52.520;13.494;2022-07-26T10:04:19;25.20;1.00
9768;DHT22;4923;52.520;13.494;2022-07-26T10:07:07;25.40;1.00
9768;DHT22;4923;52.520;13.494;2022-07-26T10:10:00;25.60;1.00
9768;DHT22;4923;52.520;13.494;2022-07-26T10:12:49;25.80;1.00
9768;DHT22;4923;52.520;13.494;2022-07-26T10:15:40;25.90;1.00
9768;DHT22;4923;52.520;13.494;2022-07-26T10:18:46;25.80;1.00
9768;DHT22;4923;52.520;13.494;2022-07-26T10:21:36;25.20;1.00
9768;DHT22;4923;52.520;13.494;2022-07-26T10:24:31;25.00;1.00
9768;DHT22;4923;52.520;13.494;2022-07-26T10:27:37;24.80;1.00
9768;DHT22;4923;52.520;13.494;2022-07-26T10:30:27;24.70;1.00
9768;DHT22;4923;52.520;13.494;2022-07-26T10:33:15;24.60;1.00
9768;DHT22;4923;52.520;13.494;2022-07-26T10:36:20;25.00;1.00
9768;DHT22;4923;52.520;13.494;2022-07-26T10:39:10;24.90;1.00
9768;DHT22;4923;52.520;13.494;2022-07-26T10:42:00;24.60;1.00
9768;DHT22;4923;52.520;13.494;2022-07-26T10:44:47;24.80;1.00
9768;DHT22;4923;52.520;13.494;2022-07-26T10:47:34;24.90;1.00
9768;DHT22;4923;52.520;13.494;2022-07-26T10:50:31;24.70;1.00
9768;DHT22;4923;52.520;13.494;2022-07-26T10:53:20;24.80;1.00
9768;DHT22;4923;52.520;13.494;2022-07-26T10:56:08;24.70;1.00
9768;DHT22;4923;52.520;13.494;2022-07-26T10:58:56;24.40;1.00
9768;DHT22;4923;52.520;13.494;2022-07-26T11:01:43;24.10;1.00
9768;DHT22;4923;52.520;13.494;2022-07-26T11:04:30;24.00;1.00
9768;DHT22;4923;52.520;13.494;2022-07-26T11:07:17;24.20;1.00
9768;DHT22;4923;52.520;13.494;2022-07-26T11:10:04;24.30;1.00
9768;DHT22;4923;52.520;13.494;2022-07-26T11:13:01;24.20;1.00
9768;DHT22;4923;52.520;13.494;2022-07-26T11:15:51;24.50;1.00
9768;DHT22;4923;52.520;13.494;2022-07-26T11:18:44;24.80;1.00
9768;DHT22;4923;52.520;13.494;2022-07-26T11:21:30;25.20;1.00
9768;DHT22;4923;52.520;13.494;2022-07-26T11:24:18;25.10;1.00
9768;DHT22;4923;52.520;13.494;2022-07-26T11:27:06;25.50;1.00
9768;DHT22;4923;52.520;13.494;2022-07-26T11:29:53;25.90;1.00
9768;DHT22;4923;52.520;13.494;2022-07-26T11:32:51;25.90;1.00
9768;DHT22;4923;52.520;13.494;2022-07-26T11:35:49;25.90;1.00
9768;DHT22;4923;52.520;13.494;2022-07-26T11:38:47;25.80;1.00
9768;DHT22;4923;52.520;13.494;2022-07-26T11:41:34;26.30;1.00
9768;DHT22;4923;52.520;13.494;2022-07-26T11:44:22;26.30;1.00
9768;DHT22;4923;52.520;13.494;2022-07-26T11:47:10;26.00;1.00
9768;DHT22;4923;52.520;13.494;2022-07-26T11:50:04;26.30;1.00
9768;DHT22;4923;52.520;13.494;2022-07-26T11:52:51;26.20;1.00
9768;DHT22;4923;52.520;13.494;2022-07-26T11:55:38;26.00;1.00
9768;DHT22;4923;52.520;13.494;2022-07-26T11:58:25;25.50;1.00
9768;DHT22;4923;52.520;13.494;2022-07-26T12:01:13;24.90;1.00
9768;DHT22;4923;52.520;13.494;2022-07-26T12:04:00;24.80;1.00
9768;DHT22;4923;52.520;13.494;2022-07-26T12:06:49;25.10;1.00
9768;DHT22;4923;52.520;13.494;2022-07-26T12:09:38;25.10;1.00
9768;DHT22;4923;52.520;13.494;2022-07-26T12:12:27;25.00;1.00
9768;DHT22;4923;52.520;13.494;2022-07-26T12:15:16;25.00;1.00
9768;DHT22;4923;52.520;13.494;2022-07-26T12:18:03;25.10;1.00
9768;DHT22;4923;52.520;13.494;2022-07-26T12:21:01;25.00;1.00
9768;DHT22;4923;52.520;13.494;2022-07-26T12:23:49;24.50;1.00
9768;DHT22;4923;52.520;13.494;2022-07-26T12:26:38;24.30;1.00
9768;DHT22;4923;52.520;13.494;2022-07-26T12:29:26;23.90;1.00
9768;DHT22;4923;52.520;13.494;2022-07-26T12:32:20;23.30;1.00
9768;DHT22;4923;52.520;13.494;2022-07-26T12:35:10;22.60;1.00
9768;DHT22;4923;52.520;13.494;2022-07-26T12:37:57;22.00;1.00
9768;DHT22;4923;52.520;13.494;2022-07-26T12:40:47;21.20;1.00
9768;DHT22;4923;52.520;13.494;2022-07-26T12:43:38;20.70;1.00
9768;DHT22;4923;52.520;13.494;2022-07-26T12:46:25;20.10;1.00
9768;DHT22;4923;52.520;13.494;2022-07-26T12:49:12;19.60;1.00
9768;DHT22;4923;52.520;13.494;2022-07-26T12:51:59;19.30;1.00
9768;DHT22;4923;52.520;13.494;2022-07-26T12:54:47;18.70;1.00
9768;DHT22;4923;52.520;13.494;2022-07-26T12:57:36;18.40;1.00
9768;DHT22;4923;52.520;13.494;2022-07-26T13:00:23;18.40;1.00
9768;DHT22;4923;52.520;13.494;2022-07-26T13:03:10;18.40;1.00
9768;DHT22;4923;52.520;13.494;2022-07-26T13:05:59;18.30;1.00
9768;DHT22;4923;52.520;13.494;2022-07-26T13:08:48;18.40;1.00
9768;DHT22;4923;52.520;13.494;2022-07-26T13:11:35;18.60;1.00
9768;DHT22;4923;52.520;13.494;2022-07-26T13:14:23;18.60;1.00
9768;DHT22;4923;52.520;13.494;2022-07-26T13:17:10;18.70;1.00
9768;DHT22;4923;52.520;13.494;2022-07-26T13:19:57;18.80;1.00
9768;DHT22;4923;52.520;13.494;2022-07-26T13:22:44;18.70;1.00
9768;DHT22;4923;52.520;13.494;2022-07-26T13:25:31;18.60;1.00
9768;DHT22;4923;52.520;13.494;2022-07-26T13:28:18;18.60;1.00
9768;DHT22;4923;52.520;13.494;2022-07-26T13:31:06;18.70;1.00
9768;DHT22;4923;52.520;13.494;2022-07-26T13:33:53;18.70;1.00
9768;DHT22;4923;52.520;13.494;2022-07-26T13:36:40;18.80;1.00
9768;DHT22;4923;52.520;13.494;2022-07-26T13:39:27;19.00;1.00
9768;DHT22;4923;52.520;13.494;2022-07-26T13:42:14;19.20;1.00
9768;DHT22;4923;52.520;13.494;2022-07-26T13:45:03;19.30;1.00
9768;DHT22;4923;52.520;13.494;2022-07-26T13:47:52;19.50;1.00
9768;DHT22;4923;52.520;13.494;2022-07-26T13:50:39;19.70;1.00
9768;DHT22;4923;52.520;13.494;2022-07-26T13:53:26;19.90;1.00
9768;DHT22;4923;52.520;13.494;2022-07-26T13:56:14;20.10;1.00
9768;DHT22;4923;52.520;13.494;2022-07-26T13:59:02;20.50;1.00
9768;DHT22;4923;52.520;13.494;2022-07-26T14:01:49;20.50;1.00
9768;DHT22;4923;52.520;13.494;2022-07-26T14:04:37;20.20;1.00
9768;DHT22;4923;52.520;13.494;2022-07-26T14:07:24;20.40;1.00
9768;DHT22;4923;52.520;13.494;2022-07-26T14:10:11;20.30;1.00
9768;DHT22;4923;52.520;13.494;2022-07-26T14:12:58;20.30;1.00
9768;DHT22;4923;52.520;13.494;2022-07-26T14:15:45;20.30;1.00
9768;DHT22;4923;52.520;13.494;2022-07-26T14:18:32;20.50;1.00
9768;DHT22;4923;52.520;13.494;2022-07-26T14:21:21;20.60;1.00
9768;DHT22;4923;52.520;13.494;2022-07-26T14:24:08;20.80;1.00
9768;DHT22;4923;52.520;13.494;2022-07-26T14:26:55;21.20;1.00
9768;DHT22;4923;52.520;13.494;2022-07-26T14:29:42;21.00;1.00
9768;DHT22;4923;52.520;13.494;2022-07-26T14:32:30;21.20;1.00
9768;DHT22;4923;52.520;13.494;2022-07-26T14:35:17;21.10;1.00
9768;DHT22;4923;52.520;13.494;2022-07-26T14:38:05;20.90;1.00
9768;DHT22;4923;52.520;13.494;2022-07-26T14:40:52;21.10;1.00
9768;DHT22;4923;52.520;13.494;2022-07-26T14:43:39;21.50;1.00
9768;DHT22;4923;52.520;13.494;2022-07-26T14:46:27;21.30;1.00
9768;DHT22;4923;52.520;13.494;2022-07-26T14:49:14;21.30;1.00
9768;DHT22;4923;52.520;13.494;2022-07-26T14:52:01;21.60;1.00
9768;DHT22;4923;52.520;13.494;2022-07-26T14:54:50;21.70;1.00
9768;DHT22;4923;52.520;13.494;2022-07-26T14:57:37;22.10;1.00
9768;DHT22;4923;52.520;13.494;2022-07-26T15:00:24;22.10;1.00
9768;DHT22;4923;52.520;13.494;2022-07-26T15:03:13;22.30;1.00
9768;DHT22;4923;52.520;13.494;2022-07-26T15:06:00;22.00;1.00
9768;DHT22;4923;52.520;13.494;2022-07-26T15:08:47;21.80;1.00
9768;DHT22;4923;52.520;13.494;2022-07-26T15:11:35;22.00;1.00
9768;DHT22;4923;52.520;13.494;2022-07-26T15:14:22;22.20;1.00
9768;DHT22;4923;52.520;13.494;2022-07-26T15:17:09;22.00;1.00
9768;DHT22;4923;52.520;13.494;2022-07-26T15:19:56;21.70;1.00
9768;DHT22;4923;52.520;13.494;2022-07-26T15:22:43;21.70;1.00
9768;DHT22;4923;52.520;13.494;2022-07-26T15:25:31;22.30;1.00
9768;DHT22;4923;52.520;13.494;2022-07-26T15:28:19;22.30;1.00
9768;DHT22;4923;52.520;13.494;2022-07-26T15:31:06;22.30;1.00
9768;DHT22;4923;52.520;13.494;2022-07-26T15:33:54;22.40;1.00
9768;DHT22;4923;52.520;13.494;2022-07-26T15:36:42;22.00;1.00
9768;DHT22;4923;52.520;13.494;2022-07-26T15:39:29;21.90;1.00
9768;DHT22;4923;52.520;13.494;2022-07-26T15:42:16;21.70;1.00
9768;DHT22;4923;52.520;13.494;2022-07-26T15:45:05;21.70;1.00
9768;DHT22;4923;52.520;13.494;2022-07-26T15:47:52;22.10;1.00
9768;DHT22;4923;52.520;13.494;2022-07-26T15:50:41;22.40;1.00
9768;DHT22;4923;52.520;13.494;2022-07-26T15:53:28;22.70;1.00
9768;DHT22;4923;52.520;13.494;2022-07-26T15:56:18;22.90;1.00
9768;DHT22;4923;52.520;13.494;2022-07-26T15:59:05;23.10;1.00
9768;DHT22;4923;52.520;13.494;2022-07-26T16:01:54;23.00;1.00
9768;DHT22;4923;52.520;13.494;2022-07-26T16:04:41;22.90;1.00
9768;DHT22;4923;52.520;13.494;2022-07-26T16:07:28;23.00;1.00
9768;DHT22;4923;52.520;13.494;2022-07-26T16:10:15;23.00;1.00
9768;DHT22;4923;52.520;13.494;2022-07-26T16:13:02;22.90;1.00
9768;DHT22;4923;52.520;13.494;2022-07-26T16:15:49;22.60;1.00
9768;DHT22;4923;52.520;13.494;2022-07-26T16:18:37;22.70;1.00
9768;DHT22;4923;52.520;13.494;2022-07-26T16:21:24;22.40;1.00
9768;DHT22;4923;52.520;13.494;2022-07-26T16:24:12;22.40;1.00
9768;DHT22;4923;52.520;13.494;2022-07-26T16:26:59;22.60;1.00
9768;DHT22;4923;52.520;13.494;2022-07-26T16:29:45;22.70;1.00
9768;DHT22;4923;52.520;13.494;2022-07-26T16:32:32;22.80;1.00
9768;DHT22;4923;52.520;13.494;2022-07-26T16:35:21;22.90;1.00
9768;DHT22;4923;52.520;13.494;2022-07-26T16:38:08;23.00;1.00
9768;DHT22;4923;52.520;13.494;2022-07-26T16:40:54;23.10;1.00
9768;DHT22;4923;52.520;13.494;2022-07-26T16:43:41;22.90;1.00
9768;DHT22;4923;52.520;13.494;2022-07-26T16:46:28;22.90;1.00
9768;DHT22;4923;52.520;13.494;2022-07-26T16:49:16;23.00;1.00
9768;DHT22;4923;52.520;13.494;2022-07-26T16:52:05;22.60;1.00
9768;DHT22;4923;52.520;13.494;2022-07-26T16:54:52;22.70;1.00
9768;DHT22;4923;52.520;13.494;2022-07-26T16:57:39;22.70;1.00
9768;DHT22;4923;52.520;13.494;2022-07-26T17:00:26;22.60;1.00
9768;DHT22;4923;52.520;13.494;2022-07-26T17:03:13;22.70;1.00
9768;DHT22;4923;52.520;13.494;2022-07-26T17:06:00;23.30;1.00
9768;DHT22;4923;52.520;13.494;2022-07-26T17:08:50;23.90;1.00
9768;DHT22;4923;52.520;13.494;2022-07-26T17:11:37;24.40;1.00
9768;DHT22;4923;52.520;13.494;2022-07-26T17:14:24;23.80;1.00
9768;DHT22;4923;52.520;13.494;2022-07-26T17:17:11;23.20;1.00
9768;DHT22;4923;52.520;13.494;2022-07-26T17:19:58;22.80;1.00
9768;DHT22;4923;52.520;13.494;2022-07-26T17:22:45;23.70;1.00
9768;DHT22;4923;52.520;13.494;2022-07-26T17:25:33;23.90;1.00
9768;DHT22;4923;52.520;13.494;2022-07-26T17:28:20;23.30;1.00
9768;DHT22;4923;52.520;13.494;2022-07-26T17:31:07;23.10;1.00
9768;DHT22;4923;52.520;13.494;2022-07-26T17:33:54;23.20;1.00
9768;DHT22;4923;52.520;13.494;2022-07-26T17:36:41;23.80;1.00
9768;DHT22;4923;52.520;13.494;2022-07-26T17:39:28;23.60;1.00
9768;DHT22;4923;52.520;13.494;2022-07-26T17:42:17;23.50;1.00
9768;DHT22;4923;52.520;13.494;2022-07-26T17:45:05;23.50;1.00
9768;DHT22;4923;52.520;13.494;2022-07-26T17:47:52;22.90;1.00
9768;DHT22;4923;52.520;13.494;2022-07-26T17:50:39;22.50;1.00
9768;DHT22;4923;52.520;13.494;2022-07-26T17:53:26;22.30;1.00
9768;DHT22;4923;52.520;13.494;2022-07-26T17:56:13;23.20;1.00
9768;DHT22;4923;52.520;13.494;2022-07-26T17:59:03;23.80;1.00
9768;DHT22;4923;52.520;13.494;2022-07-26T18:01:50;24.30;1.00
9768;DHT22;4923;52.520;13.494;2022-07-26T18:04:38;24.70;1.00
9768;DHT22;4923;52.520;13.494;2022-07-26T18:07:25;24.80;1.00
9768;DHT22;4923;52.520;13.494;2022-07-26T18:10:12;24.50;1.00
9768;DHT22;4923;52.520;13.494;2022-07-26T18:12:59;24.70;1.00
9768;DHT22;4923;52.520;13.494;2022-07-26T18:15:47;24.40;1.00